createdAt,value
2023-11-24T00:03:43.923Z,96.14
2023-11-24T00:08:45.445Z,96.97
2023-11-24T00:13:46.988Z,97.02
2023-11-24T00:18:48.507Z,95.15
2023-11-24T00:23:50.704Z,95.50
2023-11-24T00:28:52.194Z,95.52
2023-11-24T00:33:54.196Z,96.44
2023-11-24T00:38:56.041Z,95.94
2023-11-24T00:43:57.612Z,95.75
2023-11-24T00:48:59.299Z,95.28
2023-11-24T00:54:00.801Z,95.24
2023-11-24T00:59:02.898Z,95.83
2023-11-24T01:04:05.505Z,96.16
2023-11-24T01:09:10.626Z,95.76
2023-11-24T01:14:12.157Z,96.57
2023-11-24T01:19:15.554Z,96.45
2023-11-24T01:24:17.063Z,96.60
2023-11-24T01:29:18.543Z,96.66
2023-11-24T01:34:20.129Z,96.32
2023-11-24T01:39:22.349Z,96.66
2023-11-24T01:44:24.000Z,97.15
2023-11-24T01:49:28.428Z,96.36
2023-11-24T01:54:37.638Z,96.62
2023-11-24T01:59:40.156Z,96.17
2023-11-24T02:04:42.549Z,95.65
2023-11-24T02:09:44.475Z,95.81
2023-11-24T02:14:46.184Z,95.97
2023-11-24T02:19:47.800Z,95.90
2023-11-24T02:24:49.315Z,95.52
2023-11-24T02:29:52.101Z,95.54
2023-11-24T02:34:53.661Z,95.29
2023-11-24T02:39:55.296Z,95.95
2023-11-24T02:44:57.079Z,95.19
2023-11-24T02:49:58.631Z,94.88
2023-11-24T02:55:00.303Z,95.28
2023-11-24T03:00:03.303Z,94.78
2023-11-24T03:05:05.230Z,94.70
2023-11-24T03:10:07.326Z,94.49
2023-11-24T03:15:12.146Z,94.51
2023-11-24T03:20:14.528Z,94.62
2023-11-24T03:25:16.412Z,94.24
2023-11-24T03:30:18.045Z,93.57
2023-11-24T03:35:20.227Z,93.50
2023-11-24T03:40:21.737Z,92.90
2023-11-24T03:45:23.245Z,92.49
2023-11-24T03:50:24.744Z,93.04
2023-11-24T03:55:26.641Z,92.40
2023-11-24T04:00:29.207Z,92.58
2023-11-24T04:05:31.013Z,92.52
2023-11-24T04:10:32.513Z,92.96
2023-11-24T04:15:34.166Z,93.08
2023-11-24T04:20:35.763Z,92.39
2023-11-24T04:25:37.373Z,93.04
2023-11-24T04:30:38.854Z,92.95
2023-11-24T04:35:40.472Z,92.09
2023-11-24T04:40:41.983Z,91.39
2023-11-24T04:45:43.682Z,92.28
2023-11-24T04:50:45.261Z,92.64
2023-11-24T04:55:46.770Z,92.57
2023-11-24T05:00:48.320Z,92.17
2023-11-24T05:05:50.105Z,92.09
2023-11-24T05:10:51.598Z,92.03
2023-11-24T05:15:53.283Z,91.90
2023-11-24T05:20:54.847Z,91.06
2023-11-24T05:25:56.315Z,91.03
2023-11-24T05:30:59.243Z,91.11
2023-11-24T05:36:01.023Z,91.38
2023-11-24T05:41:02.536Z,91.20
2023-11-24T05:46:04.547Z,91.47
2023-11-24T05:51:06.538Z,91.40
2023-11-24T05:56:09.200Z,91.39
2023-11-24T06:01:10.945Z,91.50
2023-11-24T06:06:12.663Z,91.54
2023-11-24T06:11:18.893Z,91.27
2023-11-24T06:16:21.922Z,91.59
2023-11-24T06:21:23.425Z,91.04
2023-11-24T06:26:25.346Z,90.67
2023-11-24T06:31:26.986Z,90.57
2023-11-24T06:36:28.715Z,90.67
2023-11-24T06:41:30.258Z,90.86
2023-11-24T06:46:31.803Z,91.33
2023-11-24T06:51:33.497Z,91.12
2023-11-24T06:56:35.021Z,90.56
2023-11-24T07:01:37.904Z,90.82
2023-11-24T07:06:40.384Z,90.36
2023-11-24T07:11:44.804Z,91.56
2023-11-24T07:16:46.373Z,91.22
2023-11-24T07:21:48.497Z,90.99
2023-11-24T07:26:49.997Z,91.69
2023-11-24T07:31:51.986Z,93.00
2023-11-24T07:36:54.700Z,93.24
2023-11-24T07:41:59.815Z,92.89
2023-11-24T07:47:01.574Z,91.48
2023-11-24T07:52:03.439Z,92.13
2023-11-24T07:57:05.140Z,93.30
2023-11-24T08:02:06.702Z,93.53
2023-11-24T08:07:08.423Z,93.21
2023-11-24T08:12:12.335Z,94.35
2023-11-24T08:17:15.611Z,93.50
2023-11-24T08:22:17.134Z,93.11
2023-11-24T08:27:19.501Z,93.66
2023-11-24T08:37:21.820Z,93.93
2023-11-24T08:42:26.880Z,92.70
2023-11-24T08:47:29.034Z,91.92
2023-11-24T08:52:30.655Z,90.99
2023-11-24T08:57:32.133Z,92.35
2023-11-24T09:02:34.016Z,92.01
2023-11-24T09:07:35.546Z,93.05
2023-11-24T09:12:37.078Z,94.00
2023-11-24T09:17:38.608Z,92.86
2023-11-24T09:22:40.122Z,91.70
2023-11-24T09:27:42.444Z,94.97
2023-11-24T09:32:44.105Z,94.74
2023-11-24T09:37:45.659Z,92.53
2023-11-24T09:42:48.465Z,82.76
2023-11-24T09:47:52.544Z,82.02
2023-11-24T09:52:56.706Z,85.54
2023-11-24T09:57:59.045Z,86.69
2023-11-24T10:03:01.816Z,88.18
2023-11-24T10:08:03.847Z,88.31
2023-11-24T10:13:06.391Z,88.73
2023-11-24T10:18:08.995Z,88.48
2023-11-24T10:23:10.644Z,88.34
2023-11-24T10:28:12.219Z,88.35
2023-11-24T10:33:34.703Z,88.98
2023-11-24T10:38:41.875Z,89.60
2023-11-24T10:43:43.725Z,88.85
2023-11-24T10:48:52.952Z,87.86
2023-11-24T10:53:58.326Z,87.35
2023-11-24T10:59:01.493Z,87.79
2023-11-24T11:04:04.346Z,87.30
2023-11-24T11:09:20.859Z,87.07
2023-11-24T11:14:23.655Z,89.45
2023-11-24T11:19:33.319Z,90.32
2023-11-24T11:24:36.585Z,89.88
2023-11-24T11:29:39.184Z,89.78
2023-11-24T11:34:42.638Z,89.37
2023-11-24T11:39:58.465Z,88.85
2023-11-24T11:45:10.670Z,90.05
2023-11-24T11:50:18.991Z,89.32
2023-11-24T11:55:24.287Z,90.05
2023-11-24T12:00:28.267Z,90.42
2023-11-24T12:05:29.961Z,89.20
2023-11-24T12:10:32.816Z,89.15
2023-11-24T12:15:35.283Z,88.69
2023-11-24T12:20:37.837Z,89.59
2023-11-24T12:25:41.079Z,88.51
2023-11-24T12:30:44.205Z,88.91
2023-11-24T12:35:47.101Z,89.19
2023-11-24T12:40:51.316Z,89.38
2023-11-24T12:45:53.095Z,89.38
2023-11-24T12:50:59.679Z,90.08
2023-11-24T12:56:01.368Z,89.96
2023-11-24T13:01:02.965Z,89.41
2023-11-24T13:06:06.013Z,89.04
2023-11-24T13:11:07.793Z,88.22
2023-11-24T13:16:10.921Z,88.54
2023-11-24T13:21:12.573Z,88.64
2023-11-24T13:26:15.775Z,89.71
2023-11-24T13:31:17.217Z,89.88
2023-11-24T13:36:18.692Z,90.15
2023-11-24T13:41:20.194Z,90.21
2023-11-24T13:46:21.729Z,90.33
2023-11-24T13:51:25.265Z,90.61
2023-11-24T13:56:26.975Z,90.32
2023-11-24T14:01:28.578Z,90.04
2023-11-24T14:06:32.072Z,90.06
2023-11-24T14:11:34.006Z,90.13
2023-11-24T14:16:35.535Z,89.66
2023-11-24T14:21:38.099Z,89.70
2023-11-24T14:26:39.803Z,89.88
2023-11-24T14:31:41.892Z,89.23
2023-11-24T14:36:43.685Z,88.73
2023-11-24T14:41:47.519Z,89.21
2023-11-24T14:46:49.102Z,89.25
2023-11-24T14:51:51.941Z,89.45
2023-11-24T14:56:54.485Z,90.01
2023-11-24T15:02:18.319Z,90.46
2023-11-24T15:07:48.939Z,89.49
2023-11-24T15:20:05.932Z,89.51
2023-11-24T15:25:27.796Z,89.26
2023-11-24T15:30:30.902Z,88.70
2023-11-24T15:35:32.279Z,89.19
2023-11-24T15:40:33.766Z,88.99
2023-11-24T15:45:35.201Z,89.31
2023-11-24T15:50:39.432Z,88.97
2023-11-24T15:55:48.655Z,89.13
2023-11-24T16:00:50.513Z,89.33
2023-11-24T16:05:52.322Z,87.86
2023-11-24T16:10:57.222Z,88.01
2023-11-24T16:16:22.952Z,89.38
2023-11-24T16:21:29.972Z,90.96
2023-11-24T16:26:31.680Z,91.15
2023-11-24T16:31:36.561Z,90.66
2023-11-24T16:36:39.245Z,91.25
2023-11-24T16:41:40.806Z,91.42
2023-11-24T16:46:55.400Z,91.33
2023-11-24T16:51:57.642Z,91.27
2023-11-24T16:56:59.159Z,90.88
2023-11-24T17:02:00.681Z,90.56
2023-11-24T17:07:03.889Z,90.57
2023-11-24T17:12:06.838Z,90.74
2023-11-24T17:17:08.346Z,90.75
2023-11-24T17:22:10.672Z,90.55
2023-11-24T17:27:12.193Z,90.65
2023-11-24T17:32:13.706Z,90.62
2023-11-24T17:37:16.813Z,90.64
2023-11-24T17:42:18.300Z,90.04
2023-11-24T17:47:20.000Z,90.27
2023-11-24T17:52:21.888Z,90.11
2023-11-24T17:57:23.461Z,90.38
2023-11-24T18:02:25.010Z,90.64
2023-11-24T18:07:26.817Z,90.61
2023-11-24T18:12:28.442Z,90.22
2023-11-24T18:17:30.941Z,90.38
2023-11-24T18:22:32.566Z,90.88
2023-11-24T18:27:36.540Z,90.34
2023-11-24T18:32:39.133Z,90.39
2023-11-24T18:37:40.805Z,90.59
2023-11-24T18:42:42.325Z,89.96
2023-11-24T18:47:45.253Z,90.66
2023-11-24T18:52:47.727Z,90.76
2023-11-24T18:57:50.723Z,91.29
2023-11-24T19:02:53.459Z,91.41
2023-11-24T19:07:55.783Z,90.98
2023-11-24T19:12:57.339Z,91.02
2023-11-24T19:17:58.974Z,90.43
2023-11-24T19:23:00.622Z,90.23
2023-11-24T19:28:02.296Z,89.96
2023-11-24T19:33:03.867Z,89.95
2023-11-24T19:38:06.109Z,90.19
2023-11-24T19:43:07.653Z,90.24
2023-11-24T19:48:09.446Z,90.31
2023-11-24T19:53:11.434Z,89.95
2023-11-24T19:58:13.497Z,89.67
2023-11-24T20:03:15.751Z,90.46
2023-11-24T20:08:17.277Z,89.99
2023-11-24T20:13:18.999Z,90.11
2023-11-24T20:18:20.529Z,90.01
2023-11-24T20:23:22.046Z,89.33
2023-11-24T20:28:23.777Z,89.12
2023-11-24T20:33:25.545Z,89.51
2023-11-24T20:38:27.157Z,89.23
2023-11-24T20:43:29.671Z,88.95
2023-11-24T20:48:31.214Z,89.55
2023-11-24T20:53:33.456Z,90.38
2023-11-24T20:58:35.212Z,90.02
2023-11-24T21:03:37.312Z,90.16
2023-11-24T21:08:38.856Z,89.57
2023-11-24T21:13:42.496Z,89.81
2023-11-24T21:18:44.107Z,90.74
2023-11-24T21:23:45.609Z,91.30
2023-11-24T21:28:47.203Z,91.00
2023-11-24T21:33:49.873Z,89.83
2023-11-24T21:38:51.670Z,89.86
2023-11-24T21:43:53.956Z,90.18
2023-11-24T21:48:55.609Z,90.66
2023-11-24T21:53:57.153Z,90.91
2023-11-24T21:58:58.785Z,91.17
2023-11-24T22:04:00.575Z,91.41
2023-11-24T22:09:05.203Z,90.75
2023-11-24T22:14:06.828Z,91.22
2023-11-24T22:19:08.388Z,91.12
2023-11-24T22:24:10.862Z,91.28
2023-11-24T22:29:13.592Z,91.72
2023-11-24T22:34:17.707Z,91.35
2023-11-24T22:39:23.610Z,91.21
2023-11-24T22:44:25.530Z,92.24
2023-11-24T22:49:27.071Z,92.25
2023-11-24T22:54:28.650Z,92.62
2023-11-24T22:59:30.197Z,92.89
2023-11-24T23:04:31.718Z,93.88
2023-11-24T23:09:33.250Z,93.40
2023-11-24T23:14:36.444Z,93.75
2023-11-24T23:19:38.879Z,94.01
2023-11-24T23:24:43.919Z,92.26
2023-11-24T23:29:45.420Z,93.38
2023-11-24T23:34:46.972Z,92.81
2023-11-24T23:39:48.495Z,93.34
2023-11-24T23:44:50.045Z,93.01
2023-11-24T23:49:51.591Z,93.64
2023-11-24T23:54:53.773Z,92.83
2023-11-24T23:59:55.257Z,92.71
